sensor_id;sensor_type;location;lat;lon;timestamp;temperature;humidity
19365;DHT22;9818;48.382;10.850;2022-11-23T00:01:10;5.50;99.90
19365;DHT22;9818;48.382;10.850;2022-11-23T00:03:38;5.50;99.90
19365;DHT22;9818;48.382;10.850;2022-11-23T00:06:10;5.40;99.90
19365;DHT22;9818;48.382;10.850;2022-11-23T00:08:38;5.40;99.90
19365;DHT22;9818;48.382;10.850;2022-11-23T00:11:07;5.50;99.90
19365;DHT22;9818;48.382;10.850;2022-11-23T00:13:35;5.40;99.90
19365;DHT22;9818;48.382;10.850;2022-11-23T00:16:05;5.40;99.90
19365;DHT22;9818;48.382;10.850;2022-11-23T00:18:33;5.40;99.90
19365;DHT22;9818;48.382;10.850;2022-11-23T00:21:04;5.40;99.90
19365;DHT22;9818;48.382;10.850;2022-11-23T00:23:35;5.40;99.90
19365;DHT22;9818;48.382;10.850;2022-11-23T00:26:04;5.40;99.90
19365;DHT22;9818;48.382;10.850;2022-11-23T00:28:33;5.30;99.90
19365;DHT22;9818;48.382;10.850;2022-11-23T00:31:04;5.40;99.90
19365;DHT22;9818;48.382;10.850;2022-11-23T00:33:32;5.30;99.90
19365;DHT22;9818;48.382;10.850;2022-11-23T00:36:02;5.30;99.90
19365;DHT22;9818;48.382;10.850;2022-11-23T00:38:30;5.30;99.90
19365;DHT22;9818;48.382;10.850;2022-11-23T00:41:02;5.30;99.90
19365;DHT22;9818;48.382;10.850;2022-11-23T00:43:31;5.30;99.90
19365;DHT22;9818;48.382;10.850;2022-11-23T00:46:06;5.20;99.90
19365;DHT22;9818;48.382;10.850;2022-11-23T00:48:35;5.20;99.90
19365;DHT22;9818;48.382;10.850;2022-11-23T00:51:04;5.20;99.90
19365;DHT22;9818;48.382;10.850;2022-11-23T00:53:33;5.10;99.90
19365;DHT22;9818;48.382;10.850;2022-11-23T00:56:04;5.10;99.90
19365;DHT22;9818;48.382;10.850;2022-11-23T00:58:33;5.10;99.90
19365;DHT22;9818;48.382;10.850;2022-11-23T01:01:04;5.10;99.90
19365;DHT22;9818;48.382;10.850;2022-11-23T01:03:32;5.10;99.90
19365;DHT22;9818;48.382;10.850;2022-11-23T01:06:02;5.10;99.90
19365;DHT22;9818;48.382;10.850;2022-11-23T01:20:28;5.10;99.90
19365;DHT22;9818;48.382;10.850;2022-11-23T01:22:57;5.00;99.90
19365;DHT22;9818;48.382;10.850;2022-11-23T01:25:25;5.00;99.90
19365;DHT22;9818;48.382;10.850;2022-11-23T01:27:54;5.00;99.90
19365;DHT22;9818;48.382;10.850;2022-11-23T01:30:23;5.00;99.90
19365;DHT22;9818;48.382;10.850;2022-11-23T01:32:51;5.00;99.90
19365;DHT22;9818;48.382;10.850;2022-11-23T01:35:20;5.00;99.90
19365;DHT22;9818;48.382;10.850;2022-11-23T01:37:51;5.00;99.90
19365;DHT22;9818;48.382;10.850;2022-11-23T01:40:20;5.10;99.90
19365;DHT22;9818;48.382;10.850;2022-11-23T01:42:55;5.10;99.90
19365;DHT22;9818;48.382;10.850;2022-11-23T01:45:36;5.10;99.90
19365;DHT22;9818;48.382;10.850;2022-11-23T01:48:10;5.20;99.90
19365;DHT22;9818;48.382;10.850;2022-11-23T01:50:42;5.20;99.90
19365;DHT22;9818;48.382;10.850;2022-11-23T01:53:14;5.20;99.90
19365;DHT22;9818;48.382;10.850;2022-11-23T01:55:45;5.20;99.90
19365;DHT22;9818;48.382;10.850;2022-11-23T01:58:18;5.20;99.90
19365;DHT22;9818;48.382;10.850;2022-11-23T02:00:48;5.20;99.90
19365;DHT22;9818;48.382;10.850;2022-11-23T02:03:17;5.20;99.90
19365;DHT22;9818;48.382;10.850;2022-11-23T02:05:48;5.20;99.90
19365;DHT22;9818;48.382;10.850;2022-11-23T02:08:21;5.20;99.90
19365;DHT22;9818;48.382;10.850;2022-11-23T02:10:50;5.20;99.90
19365;DHT22;9818;48.382;10.850;2022-11-23T02:13:19;5.30;99.90
19365;DHT22;9818;48.382;10.850;2022-11-23T02:15:48;5.20;99.90
19365;DHT22;9818;48.382;10.850;2022-11-23T02:18:21;5.20;99.90
19365;DHT22;9818;48.382;10.850;2022-11-23T02:20:50;5.30;99.90
19365;DHT22;9818;48.382;10.850;2022-11-23T02:23:29;5.20;99.90
19365;DHT22;9818;48.382;10.850;2022-11-23T02:26:05;5.30;99.90
19365;DHT22;9818;48.382;10.850;2022-11-23T02:28:38;5.30;99.90
19365;DHT22;9818;48.382;10.850;2022-11-23T02:31:09;5.20;99.90
19365;DHT22;9818;48.382;10.850;2022-11-23T02:33:38;5.20;99.90
19365;DHT22;9818;48.382;10.850;2022-11-23T02:36:27;5.20;99.90
19365;DHT22;9818;48.382;10.850;2022-11-23T02:38:58;5.20;99.90
19365;DHT22;9818;48.382;10.850;2022-11-23T02:41:37;5.10;99.90
19365;DHT22;9818;48.382;10.850;2022-11-23T02:44:11;5.20;99.90
19365;DHT22;9818;48.382;10.850;2022-11-23T02:46:42;5.20;99.90
19365;DHT22;9818;48.382;10.850;2022-11-23T02:49:10;5.10;99.90
19365;DHT22;9818;48.382;10.850;2022-11-23T02:51:39;5.10;99.90
19365;DHT22;9818;48.382;10.850;2022-11-23T02:54:08;5.10;99.90
19365;DHT22;9818;48.382;10.850;2022-11-23T02:56:39;5.00;99.90
19365;DHT22;9818;48.382;10.850;2022-11-23T02:59:08;4.90;99.90
19365;DHT22;9818;48.382;10.850;2022-11-23T03:01:36;4.90;99.90
19365;DHT22;9818;48.382;10.850;2022-11-23T03:04:07;4.90;99.90
19365;DHT22;9818;48.382;10.850;2022-11-23T03:06:35;4.90;99.90
19365;DHT22;9818;48.382;10.850;2022-11-23T03:09:04;4.90;99.90
19365;DHT22;9818;48.382;10.850;2022-11-23T03:11:33;5.00;99.90
19365;DHT22;9818;48.382;10.850;2022-11-23T03:14:05;5.00;99.90
19365;DHT22;9818;48.382;10.850;2022-11-23T03:16:33;5.10;99.90
19365;DHT22;9818;48.382;10.850;2022-11-23T03:19:02;5.00;99.90
19365;DHT22;9818;48.382;10.850;2022-11-23T03:21:31;5.00;99.90
19365;DHT22;9818;48.382;10.850;2022-11-23T03:23:59;5.10;99.90
19365;DHT22;9818;48.382;10.850;2022-11-23T03:26:28;5.00;99.90
19365;DHT22;9818;48.382;10.850;2022-11-23T03:28:57;5.00;99.90
19365;DHT22;9818;48.382;10.850;2022-11-23T03:31:29;5.00;99.90
19365;DHT22;9818;48.382;10.850;2022-11-23T03:33:57;5.00;99.90
19365;DHT22;9818;48.382;10.850;2022-11-23T03:36:26;5.00;99.90
19365;DHT22;9818;48.382;10.850;2022-11-23T03:38:54;5.00;99.90
19365;DHT22;9818;48.382;10.850;2022-11-23T03:41:23;5.00;99.90
19365;DHT22;9818;48.382;10.850;2022-11-23T03:43:52;5.00;99.90
19365;DHT22;9818;48.382;10.850;2022-11-23T03:46:21;5.00;99.90
19365;DHT22;9818;48.382;10.850;2022-11-23T03:48:52;5.00;99.90
19365;DHT22;9818;48.382;10.850;2022-11-23T03:51:21;5.10;99.90
19365;DHT22;9818;48.382;10.850;2022-11-23T03:53:49;5.10;99.90
19365;DHT22;9818;48.382;10.850;2022-11-23T03:56:18;5.10;99.90
19365;DHT22;9818;48.382;10.850;2022-11-23T03:58:47;5.10;99.90
19365;DHT22;9818;48.382;10.850;2022-11-23T04:01:16;5.10;99.90
19365;DHT22;9818;48.382;10.850;2022-11-23T04:03:44;5.10;99.90
19365;DHT22;9818;48.382;10.850;2022-11-23T04:06:15;5.10;99.90
19365;DHT22;9818;48.382;10.850;2022-11-23T04:08:44;5.20;99.90
19365;DHT22;9818;48.382;10.850;2022-11-23T04:11:13;5.20;99.90
19365;DHT22;9818;48.382;10.850;2022-11-23T04:13:41;5.20;99.90
19365;DHT22;9818;48.382;10.850;2022-11-23T04:16:10;5.20;99.90
19365;DHT22;9818;48.382;10.850;2022-11-23T04:18:39;5.20;99.90
19365;DHT22;9818;48.382;10.850;2022-11-23T04:21:08;5.20;99.90
19365;DHT22;9818;48.382;10.850;2022-11-23T04:23:39;5.30;99.90
19365;DHT22;9818;48.382;10.850;2022-11-23T04:26:08;5.30;99.90
19365;DHT22;9818;48.382;10.850;2022-11-23T04:28:36;5.40;99.90
19365;DHT22;9818;48.382;10.850;2022-11-23T04:31:05;5.40;99.90
19365;DHT22;9818;48.382;10.850;2022-11-23T04:33:34;5.40;99.90
19365;DHT22;9818;48.382;10.850;2022-11-23T04:36:03;5.40;99.90
19365;DHT22;9818;48.382;10.850;2022-11-23T04:38:32;5.40;99.90
19365;DHT22;9818;48.382;10.850;2022-11-23T04:41:04;5.40;99.90
19365;DHT22;9818;48.382;10.850;2022-11-23T04:43:32;5.30;99.90
19365;DHT22;9818;48.382;10.850;2022-11-23T04:46:01;5.40;99.90
19365;DHT22;9818;48.382;10.850;2022-11-23T04:48:30;5.30;99.90
19365;DHT22;9818;48.382;10.850;2022-11-23T04:50:59;5.30;99.90
19365;DHT22;9818;48.382;10.850;2022-11-23T04:53:27;5.40;99.90
19365;DHT22;9818;48.382;10.850;2022-11-23T04:55:56;5.40;99.90
19365;DHT22;9818;48.382;10.850;2022-11-23T04:58:27;5.30;99.90
19365;DHT22;9818;48.382;10.850;2022-11-23T05:00:56;5.30;99.90
19365;DHT22;9818;48.382;10.850;2022-11-23T05:03:25;5.30;99.90
19365;DHT22;9818;48.382;10.850;2022-11-23T05:05:57;5.30;99.90
19365;DHT22;9818;48.382;10.850;2022-11-23T05:08:25;5.30;99.90
19365;DHT22;9818;48.382;10.850;2022-11-23T05:10:54;5.30;99.90
19365;DHT22;9818;48.382;10.850;2022-11-23T05:13:23;5.40;99.90
19365;DHT22;9818;48.382;10.850;2022-11-23T05:15:55;5.40;99.90
19365;DHT22;9818;48.382;10.850;2022-11-23T05:18:24;5.40;99.90
19365;DHT22;9818;48.382;10.850;2022-11-23T05:20:53;5.40;99.90
19365;DHT22;9818;48.382;10.850;2022-11-23T05:23:21;5.40;99.90
19365;DHT22;9818;48.382;10.850;2022-11-23T05:25:50;5.30;99.90
19365;DHT22;9818;48.382;10.850;2022-11-23T05:28:20;5.40;99.90
19365;DHT22;9818;48.382;10.850;2022-11-23T05:30:49;5.40;99.90
19365;DHT22;9818;48.382;10.850;2022-11-23T05:33:21;5.40;99.90
19365;DHT22;9818;48.382;10.850;2022-11-23T05:35:50;5.40;99.90
19365;DHT22;9818;48.382;10.850;2022-11-23T05:38:18;5.40;99.90
19365;DHT22;9818;48.382;10.850;2022-11-23T05:40:47;5.40;99.90
19365;DHT22;9818;48.382;10.850;2022-11-23T05:43:16;5.40;99.90
19365;DHT22;9818;48.382;10.850;2022-11-23T05:45:44;5.40;99.90
19365;DHT22;9818;48.382;10.850;2022-11-23T05:48:13;5.40;99.90
19365;DHT22;9818;48.382;10.850;2022-11-23T05:50:44;5.40;99.90
19365;DHT22;9818;48.382;10.850;2022-11-23T05:53:13;5.40;99.90
19365;DHT22;9818;48.382;10.850;2022-11-23T05:55:41;5.40;99.90
19365;DHT22;9818;48.382;10.850;2022-11-23T05:58:10;5.40;99.90
19365;DHT22;9818;48.382;10.850;2022-11-23T06:00:39;5.40;99.90
19365;DHT22;9818;48.382;10.850;2022-11-23T06:03:07;5.40;99.90
19365;DHT22;9818;48.382;10.850;2022-11-23T06:05:36;5.40;99.90
19365;DHT22;9818;48.382;10.850;2022-11-23T06:08:07;5.40;99.90
19365;DHT22;9818;48.382;10.850;2022-11-23T06:10:36;5.40;99.90
19365;DHT22;9818;48.382;10.850;2022-11-23T06:13:05;5.40;99.90
19365;DHT22;9818;48.382;10.850;2022-11-23T06:15:33;5.40;99.90
19365;DHT22;9818;48.382;10.850;2022-11-23T06:18:03;5.40;99.90
19365;DHT22;9818;48.382;10.850;2022-11-23T06:20:32;5.40;99.90
19365;DHT22;9818;48.382;10.850;2022-11-23T06:23:00;5.50;99.90
19365;DHT22;9818;48.382;10.850;2022-11-23T06:25:31;5.50;99.90
19365;DHT22;9818;48.382;10.850;2022-11-23T06:28:02;5.50;99.90
19365;DHT22;9818;48.382;10.850;2022-11-23T06:30:32;5.50;99.90
19365;DHT22;9818;48.382;10.850;2022-11-23T06:33:01;5.50;99.90
19365;DHT22;9818;48.382;10.850;2022-11-23T06:35:30;5.50;99.90
19365;DHT22;9818;48.382;10.850;2022-11-23T06:37:59;5.50;99.90
19365;DHT22;9818;48.382;10.850;2022-11-23T06:40:31;5.60;99.90
19365;DHT22;9818;48.382;10.850;2022-11-23T06:43:00;5.60;99.90
19365;DHT22;9818;48.382;10.850;2022-11-23T06:45:28;5.60;99.90
19365;DHT22;9818;48.382;10.850;2022-11-23T06:47:57;5.60;99.90
19365;DHT22;9818;48.382;10.850;2022-11-23T06:50:25;5.60;99.90
19365;DHT22;9818;48.382;10.850;2022-11-23T06:52:54;5.60;99.90
19365;DHT22;9818;48.382;10.850;2022-11-23T06:55:23;5.60;99.90
19365;DHT22;9818;48.382;10.850;2022-11-23T06:57:55;5.60;99.90
19365;DHT22;9818;48.382;10.850;2022-11-23T07:00:24;5.70;99.90
19365;DHT22;9818;48.382;10.850;2022-11-23T07:02:53;5.70;99.90
19365;DHT22;9818;48.382;10.850;2022-11-23T07:05:23;5.70;99.90
19365;DHT22;9818;48.382;10.850;2022-11-23T07:07:52;5.70;99.90
19365;DHT22;9818;48.382;10.850;2022-11-23T07:10:21;5.70;99.90
19365;DHT22;9818;48.382;10.850;2022-11-23T07:12:50;5.80;99.90
19365;DHT22;9818;48.382;10.850;2022-11-23T07:15:21;5.80;99.90
19365;DHT22;9818;48.382;10.850;2022-11-23T07:17:50;5.80;99.90
19365;DHT22;9818;48.382;10.850;2022-11-23T07:20:19;5.80;99.90
19365;DHT22;9818;48.382;10.850;2022-11-23T07:22:47;5.90;99.90
19365;DHT22;9818;48.382;10.850;2022-11-23T07:25:16;5.90;99.90
19365;DHT22;9818;48.382;10.850;2022-11-23T07:27:45;5.90;99.90
19365;DHT22;9818;48.382;10.850;2022-11-23T07:30:14;6.00;99.90
19365;DHT22;9818;48.382;10.850;2022-11-23T07:32:46;6.00;99.90
19365;DHT22;9818;48.382;10.850;2022-11-23T07:35:15;6.00;99.90
19365;DHT22;9818;48.382;10.850;2022-11-23T07:37:43;5.90;99.90
19365;DHT22;9818;48.382;10.850;2022-11-23T07:40:12;5.90;99.90
19365;DHT22;9818;48.382;10.850;2022-11-23T07:42:41;6.00;99.90
19365;DHT22;9818;48.382;10.850;2022-11-23T07:45:10;6.10;99.90
19365;DHT22;9818;48.382;10.850;2022-11-23T07:47:39;6.10;99.90
19365;DHT22;9818;48.382;10.850;2022-11-23T07:50:12;6.20;99.90
19365;DHT22;9818;48.382;10.850;2022-11-23T07:52:40;6.30;99.90
19365;DHT22;9818;48.382;10.850;2022-11-23T07:55:09;6.20;99.90
19365;DHT22;9818;48.382;10.850;2022-11-23T07:57:38;6.20;99.90
19365;DHT22;9818;48.382;10.850;2022-11-23T08:00:08;6.40;99.90
19365;DHT22;9818;48.382;10.850;2022-11-23T08:02:38;6.50;99.90
19365;DHT22;9818;48.382;10.850;2022-11-23T08:05:09;6.60;99.90
19365;DHT22;9818;48.382;10.850;2022-11-23T08:07:38;6.60;99.90
19365;DHT22;9818;48.382;10.850;2022-11-23T08:10:07;6.80;99.90
19365;DHT22;9818;48.382;10.850;2022-11-23T08:12:36;6.90;99.90
19365;DHT22;9818;48.382;10.850;2022-11-23T08:15:06;7.00;99.90
19365;DHT22;9818;48.382;10.850;2022-11-23T08:17:35;6.90;99.90
19365;DHT22;9818;48.382;10.850;2022-11-23T08:20:04;7.20;99.90
19365;DHT22;9818;48.382;10.850;2022-11-23T08:22:35;7.20;99.90
19365;DHT22;9818;48.382;10.850;2022-11-23T08:25:05;7.50;99.90
19365;DHT22;9818;48.382;10.850;2022-11-23T08:27:33;7.70;99.90
19365;DHT22;9818;48.382;10.850;2022-11-23T08:30:03;7.90;99.90
19365;DHT22;9818;48.382;10.850;2022-11-23T08:32:31;8.30;99.90
19365;DHT22;9818;48.382;10.850;2022-11-23T08:35:00;8.80;99.90
19365;DHT22;9818;48.382;10.850;2022-11-23T08:37:29;8.80;99.90
19365;DHT22;9818;48.382;10.850;2022-11-23T08:40:00;9.20;99.90
19365;DHT22;9818;48.382;10.850;2022-11-23T08:42:28;9.70;99.90
19365;DHT22;9818;48.382;10.850;2022-11-23T08:44:57;10.20;99.90
19365;DHT22;9818;48.382;10.850;2022-11-23T08:47:27;11.50;99.90
19365;DHT22;9818;48.382;10.850;2022-11-23T08:49:55;11.50;99.90
19365;DHT22;9818;48.382;10.850;2022-11-23T08:52:24;11.60;99.90
19365;DHT22;9818;48.382;10.850;2022-11-23T08:54:53;12.50;99.90
19365;DHT22;9818;48.382;10.850;2022-11-23T08:57:24;13.30;99.90
19365;DHT22;9818;48.382;10.850;2022-11-23T08:59:52;14.00;99.90
19365;DHT22;9818;48.382;10.850;2022-11-23T09:02:21;14.10;99.90
19365;DHT22;9818;48.382;10.850;2022-11-23T09:04:49;14.70;99.90
19365;DHT22;9818;48.382;10.850;2022-11-23T09:07:18;14.50;99.90
19365;DHT22;9818;48.382;10.850;2022-11-23T09:09:46;14.70;99.90
19365;DHT22;9818;48.382;10.850;2022-11-23T09:12:15;14.80;99.90
19365;DHT22;9818;48.382;10.850;2022-11-23T09:14:46;15.40;99.90
19365;DHT22;9818;48.382;10.850;2022-11-23T09:17:15;15.30;99.90
19365;DHT22;9818;48.382;10.850;2022-11-23T09:19:43;15.20;99.90
19365;DHT22;9818;48.382;10.850;2022-11-23T09:22:12;14.90;99.90
19365;DHT22;9818;48.382;10.850;2022-11-23T09:24:40;15.40;99.90
19365;DHT22;9818;48.382;10.850;2022-11-23T09:27:09;15.80;99.90
19365;DHT22;9818;48.382;10.850;2022-11-23T09:29:38;16.00;99.90
19365;DHT22;9818;48.382;10.850;2022-11-23T09:32:09;16.30;99.90
19365;DHT22;9818;48.382;10.850;2022-11-23T09:34:37;16.20;99.90
19365;DHT22;9818;48.382;10.850;2022-11-23T09:37:05;16.60;99.90
19365;DHT22;9818;48.382;10.850;2022-11-23T09:39:34;16.60;99.90
19365;DHT22;9818;48.382;10.850;2022-11-23T09:42:06;16.70;99.90
19365;DHT22;9818;48.382;10.850;2022-11-23T09:44:55;16.50;99.90
19365;DHT22;9818;48.382;10.850;2022-11-23T09:47:39;16.10;99.90
19365;DHT22;9818;48.382;10.850;2022-11-23T09:50:13;16.10;99.90
19365;DHT22;9818;48.382;10.850;2022-11-23T09:52:47;15.60;99.90
19365;DHT22;9818;48.382;10.850;2022-11-23T09:55:20;16.10;99.90
19365;DHT22;9818;48.382;10.850;2022-11-23T09:57:57;15.50;99.90
19365;DHT22;9818;48.382;10.850;2022-11-23T10:00:32;16.10;99.90
19365;DHT22;9818;48.382;10.850;2022-11-23T10:03:08;16.60;99.90
19365;DHT22;9818;48.382;10.850;2022-11-23T10:05:38;16.60;99.90
19365;DHT22;9818;48.382;10.850;2022-11-23T10:08:13;16.50;99.90
19365;DHT22;9818;48.382;10.850;2022-11-23T10:10:47;15.20;99.90
19365;DHT22;9818;48.382;10.850;2022-11-23T10:13:28;15.50;99.90
19365;DHT22;9818;48.382;10.850;2022-11-23T10:16:09;14.90;99.90
19365;DHT22;9818;48.382;10.850;2022-11-23T10:18:44;15.20;99.90
19365;DHT22;9818;48.382;10.850;2022-11-23T10:21:18;15.50;99.90
19365;DHT22;9818;48.382;10.850;2022-11-23T10:23:52;15.20;99.90
19365;DHT22;9818;48.382;10.850;2022-11-23T10:26:23;15.50;99.90
19365;DHT22;9818;48.382;10.850;2022-11-23T10:28:53;15.60;99.90
19365;DHT22;9818;48.382;10.850;2022-11-23T10:31:23;15.00;99.90
19365;DHT22;9818;48.382;10.850;2022-11-23T10:34:03;15.20;99.90
19365;DHT22;9818;48.382;10.850;2022-11-23T10:36:35;13.70;99.90
19365;DHT22;9818;48.382;10.850;2022-11-23T10:39:15;14.30;99.90
19365;DHT22;9818;48.382;10.850;2022-11-23T10:41:44;14.40;99.90
19365;DHT22;9818;48.382;10.850;2022-11-23T10:44:28;14.00;99.90
19365;DHT22;9818;48.382;10.850;2022-11-23T10:46:58;14.20;99.90
19365;DHT22;9818;48.382;10.850;2022-11-23T10:49:30;14.10;99.90
19365;DHT22;9818;48.382;10.850;2022-11-23T10:51:59;14.00;99.90
19365;DHT22;9818;48.382;10.850;2022-11-23T10:54:30;13.70;99.90
19365;DHT22;9818;48.382;10.850;2022-11-23T10:57:00;13.40;99.90
19365;DHT22;9818;48.382;10.850;2022-11-23T10:59:31;13.20;99.90
19365;DHT22;9818;48.382;10.850;2022-11-23T11:02:01;12.40;99.90
19365;DHT22;9818;48.382;10.850;2022-11-23T11:04:32;11.50;99.90
19365;DHT22;9818;48.382;10.850;2022-11-23T11:07:16;11.40;99.90
19365;DHT22;9818;48.382;10.850;2022-11-23T11:09:53;11.40;99.90
19365;DHT22;9818;48.382;10.850;2022-11-23T11:12:22;11.10;99.90
19365;DHT22;9818;48.382;10.850;2022-11-23T11:14:58;10.80;99.90
19365;DHT22;9818;48.382;10.850;2022-11-23T11:17:29;10.70;99.90
19365;DHT22;9818;48.382;10.850;2022-11-23T11:20:01;10.70;99.90
19365;DHT22;9818;48.382;10.850;2022-11-23T11:22:49;10.70;99.90
19365;DHT22;9818;48.382;10.850;2022-11-23T11:25:25;10.70;99.90
19365;DHT22;9818;48.382;10.850;2022-11-23T11:27:54;10.50;99.90
19365;DHT22;9818;48.382;10.850;2022-11-23T11:30:23;10.40;99.90
19365;DHT22;9818;48.382;10.850;2022-11-23T11:32:54;10.40;99.90
19365;DHT22;9818;48.382;10.850;2022-11-23T11:35:28;10.40;99.90
19365;DHT22;9818;48.382;10.850;2022-11-23T11:37:59;10.50;99.90
19365;DHT22;9818;48.382;10.850;2022-11-23T11:40:31;10.30;99.90
19365;DHT22;9818;48.382;10.850;2022-11-23T11:43:01;10.20;99.90
19365;DHT22;9818;48.382;10.850;2022-11-23T11:45:32;10.00;99.90
19365;DHT22;9818;48.382;10.850;2022-11-23T11:48:02;9.80;99.90
19365;DHT22;9818;48.382;10.850;2022-11-23T11:50:35;9.80;99.90
19365;DHT22;9818;48.382;10.850;2022-11-23T11:53:06;9.80;99.90
19365;DHT22;9818;48.382;10.850;2022-11-23T11:55:43;9.70;99.90
19365;DHT22;9818;48.382;10.850;2022-11-23T11:58:14;9.70;99.90
19365;DHT22;9818;48.382;10.850;2022-11-23T12:00:43;9.90;99.90
19365;DHT22;9818;48.382;10.850;2022-11-23T12:03:15;10.20;99.90
19365;DHT22;9818;48.382;10.850;2022-11-23T12:05:49;10.30;99.90
19365;DHT22;9818;48.382;10.850;2022-11-23T12:08:20;10.40;99.90
19365;DHT22;9818;48.382;10.850;2022-11-23T12:10:49;10.20;99.90
19365;DHT22;9818;48.382;10.850;2022-11-23T12:13:19;10.40;99.90
19365;DHT22;9818;48.382;10.850;2022-11-23T12:15:49;10.40;99.90
19365;DHT22;9818;48.382;10.850;2022-11-23T12:18:34;10.40;99.90
19365;DHT22;9818;48.382;10.850;2022-11-23T12:21:11;10.50;99.90
19365;DHT22;9818;48.382;10.850;2022-11-23T12:23:45;10.40;99.90
19365;DHT22;9818;48.382;10.850;2022-11-23T12:26:18;10.70;99.90
19365;DHT22;9818;48.382;10.850;2022-11-23T12:28:53;10.60;99.90
19365;DHT22;9818;48.382;10.850;2022-11-23T12:31:25;10.40;99.90
19365;DHT22;9818;48.382;10.850;2022-11-23T12:33:59;10.50;99.90
19365;DHT22;9818;48.382;10.850;2022-11-23T12:36:38;10.50;99.90
19365;DHT22;9818;48.382;10.850;2022-11-23T12:39:14;10.50;99.90
19365;DHT22;9818;48.382;10.850;2022-11-23T12:41:46;10.30;99.90
19365;DHT22;9818;48.382;10.850;2022-11-23T12:44:32;10.10;99.90
19365;DHT22;9818;48.382;10.850;2022-11-23T12:47:07;10.10;99.90
19365;DHT22;9818;48.382;10.850;2022-11-23T12:49:40;10.10;99.90
19365;DHT22;9818;48.382;10.850;2022-11-23T12:52:24;10.20;99.90
19365;DHT22;9818;48.382;10.850;2022-11-23T12:54:55;10.20;99.90
19365;DHT22;9818;48.382;10.850;2022-11-23T12:57:29;10.40;99.90
19365;DHT22;9818;48.382;10.850;2022-11-23T13:00:00;10.50;99.90
19365;DHT22;9818;48.382;10.850;2022-11-23T13:02:37;10.30;99.90
19365;DHT22;9818;48.382;10.850;2022-11-23T13:05:24;10.30;99.90
19365;DHT22;9818;48.382;10.850;2022-11-23T13:08:05;10.20;99.90
19365;DHT22;9818;48.382;10.850;2022-11-23T13:10:52;10.20;99.90
19365;DHT22;9818;48.382;10.850;2022-11-23T13:13:27;10.20;99.90
19365;DHT22;9818;48.382;10.850;2022-11-23T13:19:00;10.30;99.90
19365;DHT22;9818;48.382;10.850;2022-11-23T13:21:33;10.30;99.90
19365;DHT22;9818;48.382;10.850;2022-11-23T13:24:16;10.30;99.90
19365;DHT22;9818;48.382;10.850;2022-11-23T13:29:52;10.20;99.90
19365;DHT22;9818;48.382;10.850;2022-11-23T13:32:41;10.20;99.90
19365;DHT22;9818;48.382;10.850;2022-11-23T13:40:41;10.00;99.90
19365;DHT22;9818;48.382;10.850;2022-11-23T13:43:11;10.10;99.90
19365;DHT22;9818;48.382;10.850;2022-11-23T13:45:42;10.10;99.90
19365;DHT22;9818;48.382;10.850;2022-11-23T13:48:12;10.10;99.90
19365;DHT22;9818;48.382;10.850;2022-11-23T13:50:54;10.10;99.90
19365;DHT22;9818;48.382;10.850;2022-11-23T13:53:24;10.10;99.90
19365;DHT22;9818;48.382;10.850;2022-11-23T13:55:56;10.10;99.90
19365;DHT22;9818;48.382;10.850;2022-11-23T14:01:12;9.90;99.90
19365;DHT22;9818;48.382;10.850;2022-11-23T14:06:44;10.10;99.90
19365;DHT22;9818;48.382;10.850;2022-11-23T14:09:17;10.00;99.90
19365;DHT22;9818;48.382;10.850;2022-11-23T14:11:54;9.90;99.90
19365;DHT22;9818;48.382;10.850;2022-11-23T14:14:27;9.80;99.90
19365;DHT22;9818;48.382;10.850;2022-11-23T14:17:04;9.90;99.90
19365;DHT22;9818;48.382;10.850;2022-11-23T14:19:35;9.80;99.90
19365;DHT22;9818;48.382;10.850;2022-11-23T14:22:11;9.80;99.90
19365;DHT22;9818;48.382;10.850;2022-11-23T14:24:48;9.70;99.90
19365;DHT22;9818;48.382;10.850;2022-11-23T14:27:28;9.70;99.90
19365;DHT22;9818;48.382;10.850;2022-11-23T14:30:04;9.70;99.90
19365;DHT22;9818;48.382;10.850;2022-11-23T14:32:39;9.60;99.90
19365;DHT22;9818;48.382;10.850;2022-11-23T14:35:11;9.60;99.90
19365;DHT22;9818;48.382;10.850;2022-11-23T14:37:48;9.60;99.90
19365;DHT22;9818;48.382;10.850;2022-11-23T14:40:20;9.60;99.90
19365;DHT22;9818;48.382;10.850;2022-11-23T14:42:54;9.50;99.90
19365;DHT22;9818;48.382;10.850;2022-11-23T14:45:32;9.40;99.90
19365;DHT22;9818;48.382;10.850;2022-11-23T14:50:46;9.30;99.90
19365;DHT22;9818;48.382;10.850;2022-11-23T14:53:20;9.30;99.90
19365;DHT22;9818;48.382;10.850;2022-11-23T14:55:49;9.10;99.90
19365;DHT22;9818;48.382;10.850;2022-11-23T14:58:20;9.00;99.90
19365;DHT22;9818;48.382;10.850;2022-11-23T15:00:49;8.80;99.90
19365;DHT22;9818;48.382;10.850;2022-11-23T15:03:19;8.70;99.90
19365;DHT22;9818;48.382;10.850;2022-11-23T15:05:48;8.60;99.90
19365;DHT22;9818;48.382;10.850;2022-11-23T15:08:19;8.40;99.90
19365;DHT22;9818;48.382;10.850;2022-11-23T15:10:50;8.30;99.90
19365;DHT22;9818;48.382;10.850;2022-11-23T15:13:22;8.10;99.90
19365;DHT22;9818;48.382;10.850;2022-11-23T15:15:52;8.00;99.90
19365;DHT22;9818;48.382;10.850;2022-11-23T15:18:27;7.90;99.90
19365;DHT22;9818;48.382;10.850;2022-11-23T15:20:56;7.80;99.90
19365;DHT22;9818;48.382;10.850;2022-11-23T15:23:26;7.70;99.90
19365;DHT22;9818;48.382;10.850;2022-11-23T15:25:56;7.60;99.90
19365;DHT22;9818;48.382;10.850;2022-11-23T15:28:31;7.50;99.90
19365;DHT22;9818;48.382;10.850;2022-11-23T15:31:15;7.40;99.90
19365;DHT22;9818;48.382;10.850;2022-11-23T15:33:44;7.30;99.90
19365;DHT22;9818;48.382;10.850;2022-11-23T15:36:15;7.30;99.90
19365;DHT22;9818;48.382;10.850;2022-11-23T15:38:44;7.20;99.90
19365;DHT22;9818;48.382;10.850;2022-11-23T15:41:12;7.10;99.90
19365;DHT22;9818;48.382;10.850;2022-11-23T15:43:52;7.00;99.90
19365;DHT22;9818;48.382;10.850;2022-11-23T15:46:21;6.90;99.90
19365;DHT22;9818;48.382;10.850;2022-11-23T15:48:52;6.80;99.90
19365;DHT22;9818;48.382;10.850;2022-11-23T15:51:23;6.70;99.90
19365;DHT22;9818;48.382;10.850;2022-11-23T15:53:51;6.60;99.90
19365;DHT22;9818;48.382;10.850;2022-11-23T15:56:21;6.60;99.90
19365;DHT22;9818;48.382;10.850;2022-11-23T15:58:53;6.50;99.90
19365;DHT22;9818;48.382;10.850;2022-11-23T16:01:22;6.40;99.90
19365;DHT22;9818;48.382;10.850;2022-11-23T16:03:51;6.30;99.90
19365;DHT22;9818;48.382;10.850;2022-11-23T16:06:34;6.20;99.90
19365;DHT22;9818;48.382;10.850;2022-11-23T16:09:05;6.20;99.90
19365;DHT22;9818;48.382;10.850;2022-11-23T16:11:51;6.10;99.90
19365;DHT22;9818;48.382;10.850;2022-11-23T16:14:27;5.90;99.90
19365;DHT22;9818;48.382;10.850;2022-11-23T16:16:58;5.80;99.90
19365;DHT22;9818;48.382;10.850;2022-11-23T16:19:27;5.70;99.90
19365;DHT22;9818;48.382;10.850;2022-11-23T16:21:57;5.70;99.90
19365;DHT22;9818;48.382;10.850;2022-11-23T16:24:26;5.50;99.90
19365;DHT22;9818;48.382;10.850;2022-11-23T16:26:55;5.40;99.90
19365;DHT22;9818;48.382;10.850;2022-11-23T16:29:26;5.30;99.90
19365;DHT22;9818;48.382;10.850;2022-11-23T16:31:57;5.30;99.90
19365;DHT22;9818;48.382;10.850;2022-11-23T16:34:27;5.30;99.90
19365;DHT22;9818;48.382;10.850;2022-11-23T16:36:55;5.20;99.90
19365;DHT22;9818;48.382;10.850;2022-11-23T16:39:24;5.10;99.90